createdAt,value
2018-12-17T00:01:59.777Z,2.40
2018-12-17T00:06:02.488Z,2.40
2018-12-17T00:10:05.690Z,2.40
2018-12-17T00:14:08.280Z,2.40
2018-12-17T00:18:10.904Z,2.40
2018-12-17T00:22:13.521Z,2.40
2018-12-17T00:26:16.133Z,2.40
2018-12-17T00:30:18.748Z,2.50
2018-12-17T00:34:21.357Z,2.50
2018-12-17T00:38:23.973Z,2.50
2018-12-17T00:42:26.803Z,2.50
2018-12-17T00:46:29.416Z,2.50
2018-12-17T00:50:32.036Z,2.50
2018-12-17T00:54:34.636Z,2.50
2018-12-17T00:58:37.250Z,2.50
2018-12-17T01:02:39.927Z,2.50
2018-12-17T01:06:42.533Z,2.50
2018-12-17T01:10:45.167Z,2.60
2018-12-17T01:14:48.126Z,2.60
2018-12-17T01:18:50.804Z,2.60
2018-12-17T01:22:53.544Z,2.60
2018-12-17T01:26:56.152Z,2.60
2018-12-17T01:30:58.787Z,2.60
2018-12-17T01:35:01.389Z,2.60
2018-12-17T01:39:05.096Z,2.60
2018-12-17T01:43:07.734Z,2.60
2018-12-17T01:47:10.358Z,2.70
2018-12-17T01:51:12.976Z,2.70
2018-12-17T01:55:19.045Z,2.70
2018-12-17T01:59:21.693Z,2.70
2018-12-17T02:03:24.330Z,2.70
2018-12-17T02:07:26.952Z,2.70
2018-12-17T02:11:29.599Z,2.70
2018-12-17T02:15:32.233Z,2.70
2018-12-17T02:19:34.945Z,2.80
2018-12-17T02:23:37.585Z,2.70
2018-12-17T02:27:40.232Z,2.70
2018-12-17T02:31:42.862Z,2.80
2018-12-17T02:35:45.487Z,2.80
2018-12-17T02:39:48.181Z,2.80
2018-12-17T02:43:51.315Z,2.80
2018-12-17T02:47:54.077Z,2.80
2018-12-17T02:51:56.756Z,2.80
2018-12-17T02:55:59.361Z,2.80
2018-12-17T03:00:01.973Z,2.80
2018-12-17T03:04:04.604Z,2.80
2018-12-17T03:08:07.236Z,2.80
2018-12-17T03:12:09.863Z,2.80
2018-12-17T03:16:13.417Z,2.80
2018-12-17T03:20:16.866Z,2.80
2018-12-17T03:24:19.486Z,2.80
2018-12-17T03:28:22.145Z,2.80
2018-12-17T03:32:24.829Z,2.80
2018-12-17T03:36:27.444Z,2.80
2018-12-17T03:40:30.112Z,2.80
2018-12-17T03:44:32.740Z,2.80
2018-12-17T03:48:38.594Z,2.80
2018-12-17T03:52:42.334Z,2.80
2018-12-17T03:56:45.240Z,2.80
2018-12-17T04:00:47.999Z,2.80
2018-12-17T04:04:50.818Z,2.80
2018-12-17T04:08:53.722Z,2.80
2018-12-17T04:12:56.429Z,2.80
2018-12-17T04:16:59.057Z,2.80
2018-12-17T04:21:01.716Z,2.80
2018-12-17T04:25:04.466Z,2.80
2018-12-17T04:29:07.336Z,2.80
2018-12-17T04:33:10.104Z,2.80
2018-12-17T04:37:12.738Z,2.80
2018-12-17T04:41:15.390Z,2.80
2018-12-17T04:45:18.004Z,2.80
2018-12-17T04:49:20.648Z,2.80
2018-12-17T04:53:23.316Z,2.80
2018-12-17T04:57:25.978Z,2.80
2018-12-17T05:01:28.625Z,2.80
2018-12-17T05:05:31.240Z,2.80
2018-12-17T05:09:34.801Z,2.80
2018-12-17T05:13:37.408Z,2.80
2018-12-17T05:17:40.076Z,2.80
2018-12-17T05:21:42.752Z,2.80
2018-12-17T05:25:45.412Z,2.90
2018-12-17T05:29:48.075Z,2.80
2018-12-17T05:33:50.751Z,2.90
2018-12-17T05:37:53.417Z,2.90
2018-12-17T05:41:56.641Z,2.90
2018-12-17T05:45:59.272Z,2.90
2018-12-17T05:50:01.962Z,2.90
2018-12-17T05:54:04.599Z,2.90
2018-12-17T05:58:07.257Z,2.90
2018-12-17T06:02:09.910Z,3.00
2018-12-17T06:06:12.634Z,3.00
2018-12-17T06:10:15.273Z,3.00
2018-12-17T06:14:17.888Z,3.00
2018-12-17T06:18:21.183Z,3.00
2018-12-17T06:22:23.912Z,3.00
2018-12-17T06:26:26.581Z,3.00
2018-12-17T06:30:29.249Z,3.10
2018-12-17T06:34:31.853Z,3.00
2018-12-17T06:38:34.530Z,3.00
2018-12-17T06:42:37.213Z,3.00
2018-12-17T06:46:39.868Z,3.00
2018-12-17T06:50:42.506Z,3.10
2018-12-17T06:54:45.334Z,3.00
2018-12-17T06:58:48.058Z,3.10
2018-12-17T07:02:50.792Z,3.10
2018-12-17T07:06:54.271Z,3.10
2018-12-17T07:10:56.976Z,3.10
2018-12-17T07:14:59.608Z,3.10
2018-12-17T07:19:02.301Z,3.20
2018-12-17T07:23:04.941Z,3.20
2018-12-17T07:27:08.022Z,3.20
2018-12-17T07:31:10.676Z,3.20
2018-12-17T07:35:13.511Z,3.20
2018-12-17T07:39:16.280Z,3.20
2018-12-17T07:43:18.965Z,3.20
2018-12-17T07:47:21.666Z,3.30
2018-12-17T07:51:24.378Z,3.30
2018-12-17T07:55:27.072Z,3.30
2018-12-17T07:59:30.099Z,3.30
2018-12-17T08:03:33.743Z,3.40
2018-12-17T08:07:36.448Z,3.40
2018-12-17T08:11:39.757Z,3.40
2018-12-17T08:15:42.621Z,3.40
2018-12-17T08:19:45.454Z,3.50
2018-12-17T08:23:48.464Z,3.50
2018-12-17T08:27:51.184Z,3.50
2018-12-17T08:31:54.719Z,3.50
2018-12-17T08:35:57.607Z,3.50
2018-12-17T08:40:00.308Z,3.50
2018-12-17T08:44:04.312Z,3.60
2018-12-17T08:48:07.011Z,3.60
2018-12-17T08:52:09.689Z,3.60
2018-12-17T08:56:12.419Z,3.70
2018-12-17T09:00:15.216Z,3.80
2018-12-17T09:04:17.943Z,3.90
2018-12-17T09:08:20.667Z,3.90
2018-12-17T09:12:23.370Z,4.00
2018-12-17T09:16:26.057Z,4.00
2018-12-17T09:20:28.819Z,4.10
2018-12-17T09:24:31.632Z,4.10
2018-12-17T09:28:34.467Z,4.10
2018-12-17T09:32:37.263Z,4.20
2018-12-17T09:36:39.964Z,4.20
2018-12-17T09:40:42.676Z,4.20
2018-12-17T09:44:45.427Z,4.30
2018-12-17T09:48:48.245Z,4.30
2018-12-17T09:52:50.930Z,4.30
2018-12-17T09:56:53.844Z,4.30
2018-12-17T10:00:56.553Z,4.30
2018-12-17T10:04:59.321Z,4.30
2018-12-17T10:09:01.969Z,4.40
2018-12-17T10:13:04.622Z,4.40
2018-12-17T10:17:07.361Z,4.40
2018-12-17T10:21:11.314Z,4.40
2018-12-17T10:25:15.325Z,4.40
2018-12-17T10:29:19.212Z,4.40
2018-12-17T10:33:28.858Z,4.40
2018-12-17T10:37:32.600Z,4.50
2018-12-17T10:41:35.584Z,4.50
2018-12-17T10:45:38.350Z,4.60
2018-12-17T10:49:41.112Z,4.60
2018-12-17T10:53:43.956Z,4.70
2018-12-17T10:57:46.901Z,4.80
2018-12-17T11:01:53.963Z,4.90
2018-12-17T11:05:57.577Z,5.00
2018-12-17T11:10:00.263Z,5.10
2018-12-17T11:14:04.174Z,5.10
2018-12-17T11:18:06.906Z,5.20
2018-12-17T11:22:09.657Z,5.20
2018-12-17T11:26:12.303Z,5.30
2018-12-17T11:30:14.990Z,5.30
2018-12-17T11:34:17.689Z,5.30
2018-12-17T11:38:20.365Z,5.30
2018-12-17T11:42:23.063Z,5.30
2018-12-17T11:46:25.740Z,5.40
2018-12-17T11:50:28.413Z,5.30
2018-12-17T11:54:31.085Z,5.40
2018-12-17T11:58:33.785Z,5.40
2018-12-17T12:02:36.493Z,5.40
2018-12-17T12:06:39.220Z,5.30
2018-12-17T12:10:41.932Z,5.40
2018-12-17T12:14:44.704Z,5.40
2018-12-17T12:18:47.389Z,5.40
2018-12-17T12:22:50.116Z,5.40
2018-12-17T12:26:52.768Z,5.40
2018-12-17T12:31:00.451Z,5.40
2018-12-17T12:35:03.212Z,5.40
2018-12-17T12:39:06.621Z,5.40
2018-12-17T12:43:09.292Z,5.40
2018-12-17T12:47:12.022Z,5.40
2018-12-17T12:51:14.662Z,5.40
2018-12-17T12:55:17.440Z,5.40
2018-12-17T12:59:20.144Z,5.40
2018-12-17T13:03:22.904Z,5.40
2018-12-17T13:07:25.651Z,5.40
2018-12-17T13:11:28.465Z,5.40
2018-12-17T13:15:31.152Z,5.40
2018-12-17T13:19:33.894Z,5.40
2018-12-17T13:23:36.576Z,5.40
2018-12-17T13:27:39.273Z,5.40
2018-12-17T13:31:41.961Z,5.40
2018-12-17T13:35:44.599Z,5.40
2018-12-17T13:39:47.257Z,5.40
2018-12-17T13:43:49.916Z,5.40
2018-12-17T13:47:52.524Z,5.40
2018-12-17T13:52:00.697Z,5.40
2018-12-17T13:56:03.324Z,5.40
2018-12-17T14:00:07.141Z,5.50
2018-12-17T14:04:09.824Z,5.50
2018-12-17T14:08:12.488Z,5.50
2018-12-17T14:12:15.173Z,5.50
2018-12-17T14:16:19.862Z,5.50
2018-12-17T14:20:28.081Z,5.50
2018-12-17T14:24:31.046Z,5.60
2018-12-17T14:28:33.744Z,5.60
2018-12-17T14:32:36.495Z,5.60
2018-12-17T14:36:39.353Z,5.70
2018-12-17T14:40:42.045Z,5.70
2018-12-17T14:44:44.691Z,5.70
2018-12-17T14:48:47.346Z,5.70
2018-12-17T14:52:49.997Z,5.70
2018-12-17T14:56:52.756Z,5.70
2018-12-17T15:00:55.393Z,5.70
2018-12-17T15:04:58.052Z,5.70
2018-12-17T15:09:00.677Z,5.80
2018-12-17T15:13:03.391Z,5.80
2018-12-17T15:17:06.132Z,5.80
2018-12-17T15:21:08.824Z,5.80
2018-12-17T15:25:11.470Z,5.80
2018-12-17T15:29:14.086Z,5.80
2018-12-17T15:33:16.751Z,5.80
2018-12-17T15:37:19.500Z,5.80
2018-12-17T15:41:22.129Z,5.80
2018-12-17T15:45:24.778Z,5.80
2018-12-17T15:49:27.380Z,5.90
2018-12-17T15:53:30.002Z,5.90
2018-12-17T15:57:32.627Z,5.90
2018-12-17T16:01:35.276Z,5.90
2018-12-17T16:05:37.878Z,6.00
2018-12-17T16:09:40.508Z,5.90
2018-12-17T16:13:43.140Z,6.00
2018-12-17T16:17:45.761Z,6.00
2018-12-17T16:21:48.435Z,6.00
2018-12-17T16:25:51.662Z,6.00
2018-12-17T16:29:54.320Z,6.10
2018-12-17T16:33:56.949Z,6.10
2018-12-17T16:37:59.565Z,6.10
2018-12-17T16:42:02.318Z,6.10
2018-12-17T16:46:04.938Z,6.10
2018-12-17T16:50:08.429Z,6.10
2018-12-17T16:54:11.063Z,6.20
2018-12-17T16:58:13.704Z,6.20
2018-12-17T17:02:16.340Z,6.20
2018-12-17T17:06:18.951Z,6.20
2018-12-17T17:10:21.572Z,6.20
2018-12-17T17:14:24.187Z,6.30
2018-12-17T17:18:26.809Z,6.30
2018-12-17T17:22:30.205Z,6.30
2018-12-17T17:26:32.814Z,6.30
2018-12-17T17:30:35.426Z,6.30
2018-12-17T17:34:38.044Z,6.30
2018-12-17T17:38:41.288Z,6.30
2018-12-17T17:42:44.053Z,6.40
2018-12-17T17:46:47.224Z,6.40
2018-12-17T17:50:51.031Z,6.40
2018-12-17T17:54:53.659Z,6.40
2018-12-17T17:58:59.183Z,6.40
2018-12-17T18:03:02.114Z,6.40
2018-12-17T18:07:04.766Z,6.40
2018-12-17T18:11:07.421Z,6.40
2018-12-17T18:15:10.047Z,6.40
2018-12-17T18:19:12.681Z,6.40
2018-12-17T18:23:15.295Z,6.40
2018-12-17T18:27:17.928Z,6.50
2018-12-17T18:31:20.648Z,6.50
2018-12-17T18:35:23.320Z,6.50
2018-12-17T18:39:25.921Z,6.50
2018-12-17T18:43:28.789Z,6.50
2018-12-17T18:47:31.444Z,6.50
2018-12-17T18:51:34.065Z,6.50
2018-12-17T18:55:36.690Z,6.50
2018-12-17T18:59:39.311Z,6.50
2018-12-17T19:03:42.030Z,6.50
2018-12-17T19:07:44.658Z,6.50
2018-12-17T19:11:47.240Z,6.60
2018-12-17T19:15:49.866Z,6.60
2018-12-17T19:19:52.484Z,6.60
2018-12-17T19:23:55.096Z,6.60
2018-12-17T19:27:57.688Z,6.60
2018-12-17T19:32:00.329Z,6.60
2018-12-17T19:36:02.945Z,6.60
2018-12-17T19:40:05.916Z,6.60
2018-12-17T19:44:08.528Z,6.60
2018-12-17T19:48:11.159Z,6.60
2018-12-17T19:52:13.809Z,6.60
2018-12-17T19:56:16.733Z,6.60
2018-12-17T20:00:19.592Z,6.60
2018-12-17T20:04:22.783Z,6.60
2018-12-17T20:08:25.411Z,6.60
2018-12-17T20:12:28.166Z,6.60
2018-12-17T20:16:30.918Z,6.60
2018-12-17T20:20:33.572Z,6.60
2018-12-17T20:24:36.197Z,6.60
2018-12-17T20:28:38.805Z,6.60
2018-12-17T20:32:42.010Z,6.60
2018-12-17T20:36:44.753Z,6.60
2018-12-17T20:40:47.406Z,6.60
2018-12-17T20:44:50.063Z,6.60
2018-12-17T20:48:52.757Z,6.60
2018-12-17T20:52:56.522Z,6.70
2018-12-17T20:57:00.269Z,6.60
2018-12-17T21:01:04.188Z,6.70
2018-12-17T21:05:08.173Z,6.70
2018-12-17T21:09:10.785Z,6.70
2018-12-17T21:13:14.784Z,6.70
2018-12-17T21:17:18.130Z,6.70
2018-12-17T21:21:22.883Z,6.70
2018-12-17T21:25:27.071Z,6.70
2018-12-17T21:29:29.917Z,6.70
2018-12-17T21:33:37.354Z,6.70
2018-12-17T21:37:40.213Z,6.80
2018-12-17T21:41:44.192Z,6.80
2018-12-17T21:45:46.917Z,6.80
2018-12-17T21:49:50.365Z,6.80
2018-12-17T21:53:53.156Z,6.80
2018-12-17T21:57:56.822Z,6.80
2018-12-17T22:02:00.197Z,6.80
2018-12-17T22:06:03.421Z,6.80
2018-12-17T22:10:07.215Z,6.80
2018-12-17T22:14:10.368Z,6.80
2018-12-17T22:18:13.627Z,6.80
2018-12-17T22:22:16.332Z,6.80
2018-12-17T22:26:20.117Z,6.80
2018-12-17T22:30:23.486Z,6.80
2018-12-17T22:34:26.809Z,6.70
2018-12-17T22:38:29.735Z,6.70
2018-12-17T22:42:32.852Z,6.70
2018-12-17T22:46:36.240Z,6.60
2018-12-17T22:50:39.396Z,6.60
2018-12-17T22:54:43.047Z,6.60
2018-12-17T22:58:46.098Z,6.50
2018-12-17T23:02:49.493Z,6.50
2018-12-17T23:06:52.248Z,6.50
2018-12-17T23:11:01.301Z,6.40
2018-12-17T23:15:10.193Z,6.40
2018-12-17T23:19:12.631Z,6.40
2018-12-17T23:23:16.436Z,6.40
2018-12-17T23:27:19.263Z,6.30
2018-12-17T23:31:21.885Z,6.30
2018-12-17T23:35:24.534Z,6.30
2018-12-17T23:39:27.268Z,6.30
2018-12-17T23:43:29.915Z,6.30
2018-12-17T23:47:32.540Z,6.30
2018-12-17T23:51:35.233Z,6.40
2018-12-17T23:55:37.881Z,6.30
2018-12-17T23:59:40.516Z,6.40
